WetterOnline ( https://www.wetteronline.de )

Wetter aktuell Pforzheim

Aktuelles Wetter: Mühlacker (245m)

6-stündlich | Neueste Meldungen
Ortszeit Temperatur Wetter
Di, 21.05. 8:00 14.5° C bedeckt
Di, 21.05. 2:00 12.8° C bedeckt
Mo, 20.05. 20:00 17.8° C Regen
Mo, 20.05. 14:00 21.6° C leicht bewölkt
Mo, 20.05. 8:00 11.2° C wolkenlos
Mo, 20.05. 2:00 8.7° C wolkenlos
So, 19.05. 20:00 17.5° C bewölkt
So, 19.05. 14:00 18.8° C leicht bewölkt
Ortszeit Temperatur Wetter
Di, 21.05. 8:00 14.5° C bedeckt
Di, 21.05. 7:50 14.5° C bedeckt
Di, 21.05. 7:40 14.5° C bedeckt
Di, 21.05. 7:30 14.7° C Sprühregen
Di, 21.05. 7:20 14.7° C Sprühregen
Di, 21.05. 7:10 14.7° C leichter Regen
Di, 21.05. 7:00 14.8° C bedeckt
Di, 21.05. 6:30 14.9° C leichter Regen
Di, 21.05. 6:00 14.8° C wolkig
Di, 21.05. 5:30 13.9° C bedeckt
Ortszeit Relative Feuchte Sichtweite
Di, 21.05. 8:00 88% 50 km
Di, 21.05. 2:00 97% 30 km
Mo, 20.05. 20:00 78% 65 km
Mo, 20.05. 14:00 49% 55 km
Mo, 20.05. 8:00 92% 26 km
Mo, 20.05. 2:00 97% 25 km
So, 19.05. 20:00 68% 50 km
So, 19.05. 14:00 60% >70 km
Ortszeit Relative Feuchte Sichtweite
Di, 21.05. 8:00 88% 50 km
Di, 21.05. 7:50 88% -
Di, 21.05. 7:40 88% -
Di, 21.05. 7:30 87% 45 km
Di, 21.05. 7:20 87% -
Di, 21.05. 7:10 87% -
Di, 21.05. 7:00 87% 45 km
Di, 21.05. 6:30 87% 40 km
Di, 21.05. 6:00 87% 55 km
Di, 21.05. 5:30 90% 50 km
Ortszeit Niederschlagsmenge Niederschlagsart
Di, 21.05. 8:00 0.1 l/m2 in 12 Std. Regen
Di, 21.05. 2:00 0.0 l/m2 in 6 Std. -
Mo, 20.05. 20:00 0.5 l/m2 in 12 Std. Regen
Mo, 20.05. 14:00 0.0 l/m2 in 6 Std. -
Mo, 20.05. 8:00 0.0 l/m2 in 12 Std. -
Mo, 20.05. 2:00 0.0 l/m2 in 6 Std. -
So, 19.05. 20:00 0.0 l/m2 in 12 Std. -
So, 19.05. 14:00 0.0 l/m2 in 6 Std. -
Ortszeit Niederschlagsmenge Niederschlagsart
Di, 21.05. 8:00 <0.05 l/m2 in 1 Std. Regen
Di, 21.05. 7:50 keine Meldung -
Di, 21.05. 7:40 keine Meldung -
Di, 21.05. 7:30 <0.05 l/m2 in 30 Min -
Di, 21.05. 7:20 keine Meldung -
Di, 21.05. 7:10 keine Meldung -
Di, 21.05. 7:00 <0.05 l/m2 in 1 Std. Regen
Di, 21.05. 6:30 <0.05 l/m2 in 30 Min -
Di, 21.05. 6:00 <0.05 l/m2 in 1 Std. Regen
Di, 21.05. 5:30 0.0 l/m2 in 30 Min -
Ortszeit Stärke Spitze Richtung
km/h Bft. km/h Grad Sektor
Di, 21.05. 8:00 11 2 25 280° W
Di, 21.05. 2:00 0 0 11 - -
Mo, 20.05. 20:00 9 2 31 20° N
Mo, 20.05. 14:00 7 2 22 160° S
Mo, 20.05. 8:00 4 1 7 140° SO
Mo, 20.05. 2:00 0 0 25 - -
So, 19.05. 20:00 11 2 36 270° W
So, 19.05. 14:00 17 3 31 240° SW
Ortszeit Stärke Spitze Richtung
km/h Bft. km/h Grad Sektor
Di, 21.05. 8:00 11 2 25 280° W
Di, 21.05. 7:50 11 2 - 280° W
Di, 21.05. 7:40 9 2 - 290° W
Di, 21.05. 7:30 11 2 24 320° NW
Di, 21.05. 7:20 11 2 - 320° NW
Di, 21.05. 7:10 13 3 - 290° W
Di, 21.05. 7:00 14 3 22 310° NW
Di, 21.05. 6:30 11 2 18 300° NW
Di, 21.05. 6:00 11 2 22 300° NW
Di, 21.05. 5:30 4 1 14 270° W
Ortszeit Untergrenze Bedeckung Gattung
total tief tief mittel hoch
Di, 21.05. 8:00 1800 m 8/8 8/8 - - -
Di, 21.05. 2:00 3300 m 8/8 8/8 - - -
Mo, 20.05. 20:00 2100 m 8/8 2/8 - - -
Mo, 20.05. 14:00 1380 m 2/8 2/8 - - -
Mo, 20.05. 8:00 - 0/8 0/8 - - -
Mo, 20.05. 2:00 - 0/8 0/8 - - -
So, 19.05. 20:00 2700 m 7/8 7/8 - - -
So, 19.05. 14:00 1020 m 2/8 1/8 - - -
Ortszeit Bedeckungsgrad in Achtel und Wolkenuntergrenze
Di, 21.05. 8:00 1(1800m) 3(2100m) 8(2700m)
Di, 21.05. 7:50 1(1800m) 3(2100m) 8(2700m)
Di, 21.05. 7:40 8
Di, 21.05. 7:30 3(2400m) 8(2700m) 8(3600m)
Di, 21.05. 7:20 3(2400m) 8(2700m) 8(3600m)
Di, 21.05. 7:10 8
Di, 21.05. 7:00 2(2100m) 8(2700m) 8(3600m)
Di, 21.05. 6:30 2(2100m) 8(2700m) 8(3600m)
Di, 21.05. 6:00 3(2100m) 8(3000m)
Di, 21.05. 5:30 7(3000m) 8(3600m) 8(4200m)
Ortszeit Luftdruck NN (hPa) Tendenz (hPa in 3 Std.)
Di, 21.05. 8:00 1007 + 0,6
Di, 21.05. 2:00 1007 - 1,3
Mo, 20.05. 20:00 1008 - 0,5
Mo, 20.05. 14:00 1010 - 0,5
Mo, 20.05. 8:00 1012 + 0,1
Mo, 20.05. 2:00 1012 + 0,2
So, 19.05. 20:00 1011 - 0,1
So, 19.05. 14:00 1012 - 0,8
Ortszeit Luftdruck NN (hPa) Tendenz (hPa in 3 Std.)
Di, 21.05. 8:00 1007 + 0,6
Di, 21.05. 7:50 1007 keine Meldung
Di, 21.05. 7:40 1007 keine Meldung
Di, 21.05. 7:30 1007 + 0,7
Di, 21.05. 7:20 1007 keine Meldung
Di, 21.05. 7:10 1007 keine Meldung
Di, 21.05. 7:00 1007 + 0,7
Di, 21.05. 6:30 1007 + 0,3
Di, 21.05. 6:00 1007 0,0
Di, 21.05. 5:30 1007 - 0,2
Ortszeit Schneehöhe (cm)
Di, 21.05. 8:00 0
Di, 21.05. 2:00 0
Mo, 20.05. 20:00 0
Mo, 20.05. 14:00 0
Mo, 20.05. 8:00 0
Mo, 20.05. 2:00 0
So, 19.05. 20:00 0
So, 19.05. 14:00 0
Ortszeit Schneehöhe (cm)
Di, 21.05. 8:00 0
Di, 21.05. 7:50 0
Di, 21.05. 7:40 -
Di, 21.05. 7:30 0
Di, 21.05. 7:20 0
Di, 21.05. 7:10 -
Di, 21.05. 7:00 0
Di, 21.05. 6:30 0
Di, 21.05. 6:00 0
Di, 21.05. 5:30 0
Link zu dieser Seite / Seite empfehlen

Das Wetter in ...